createdAt,value
2022-10-19T00:01:17.522Z,78.17
2022-10-19T00:03:52.351Z,78.18
2022-10-19T00:06:27.160Z,78.66
2022-10-19T00:09:02.169Z,78.86
2022-10-19T00:11:36.837Z,79.05
2022-10-19T00:14:13.306Z,79.26
2022-10-19T00:16:48.117Z,78.63
2022-10-19T00:19:22.763Z,79.04
2022-10-19T00:21:55.417Z,79.05
2022-10-19T00:24:28.370Z,79.45
2022-10-19T00:27:00.742Z,80.00
2022-10-19T00:29:33.094Z,79.73
2022-10-19T00:32:05.616Z,79.24
2022-10-19T00:34:37.962Z,79.18
2022-10-19T00:37:10.286Z,79.20
2022-10-19T00:39:43.362Z,79.71
2022-10-19T00:42:15.701Z,79.58
2022-10-19T00:45:05.146Z,79.74
2022-10-19T00:47:38.088Z,79.67
2022-10-19T00:50:14.017Z,78.77
2022-10-19T00:52:46.607Z,79.34
2022-10-19T00:55:19.781Z,79.36
2022-10-19T00:57:52.318Z,79.47
2022-10-19T01:00:24.719Z,79.83
2022-10-19T01:02:58.543Z,79.92
2022-10-19T01:05:33.619Z,79.86
2022-10-19T01:08:08.557Z,80.25
2022-10-19T01:10:50.553Z,79.91
2022-10-19T01:13:35.394Z,80.04
2022-10-19T01:16:15.054Z,79.92
2022-10-19T01:18:58.411Z,79.30
2022-10-19T01:21:35.302Z,80.46
2022-10-19T01:24:31.521Z,80.72
2022-10-19T01:27:27.325Z,79.91
2022-10-19T01:30:13.311Z,79.65
2022-10-19T01:33:04.191Z,80.16
2022-10-19T01:35:42.913Z,80.32
2022-10-19T01:38:24.662Z,80.12
2022-10-19T01:41:03.811Z,80.24
2022-10-19T01:43:44.873Z,80.01
2022-10-19T01:46:22.643Z,80.44
2022-10-19T01:49:00.161Z,80.33
2022-10-19T01:51:35.767Z,80.36
2022-10-19T01:54:13.522Z,80.64
2022-10-19T01:56:48.267Z,81.03
2022-10-19T01:59:21.398Z,80.45
2022-10-19T02:01:55.380Z,80.56
2022-10-19T02:04:28.153Z,80.46
2022-10-19T02:07:02.310Z,80.88
2022-10-19T02:09:35.119Z,80.63
2022-10-19T02:12:10.809Z,80.59
2022-10-19T02:14:45.649Z,80.24
2022-10-19T02:17:23.833Z,79.76
2022-10-19T02:19:57.512Z,80.84
2022-10-19T02:22:31.085Z,80.23
2022-10-19T02:25:04.266Z,80.68
2022-10-19T02:27:38.993Z,80.92
2022-10-19T02:30:13.990Z,80.97
2022-10-19T02:32:47.077Z,81.22
2022-10-19T02:35:19.578Z,81.21
2022-10-19T02:37:51.977Z,80.94
2022-10-19T02:40:25.374Z,80.85
2022-10-19T02:43:03.887Z,80.68
2022-10-19T02:45:39.002Z,81.10
2022-10-19T02:48:18.401Z,80.57
2022-10-19T02:50:51.324Z,80.43
2022-10-19T02:53:23.715Z,80.50
2022-10-19T02:55:56.055Z,80.97
2022-10-19T02:58:28.407Z,81.19
2022-10-19T03:01:00.719Z,80.82
2022-10-19T03:03:33.714Z,80.63
2022-10-19T03:06:06.084Z,80.60
2022-10-19T03:08:38.760Z,80.93
2022-10-19T03:11:11.081Z,80.87
2022-10-19T03:13:43.529Z,80.23
2022-10-19T03:16:15.887Z,80.49
2022-10-19T03:18:49.569Z,80.34
2022-10-19T03:21:21.870Z,80.36
2022-10-19T03:23:54.211Z,79.62
2022-10-19T03:26:26.899Z,80.15
2022-10-19T03:28:59.282Z,80.65
2022-10-19T03:31:32.021Z,80.89
2022-10-19T03:34:05.197Z,80.37
2022-10-19T03:36:39.207Z,80.46
2022-10-19T03:39:13.734Z,80.61
2022-10-19T03:41:46.281Z,80.85
2022-10-19T03:44:18.607Z,80.99
2022-10-19T03:46:51.211Z,80.67
2022-10-19T03:49:24.555Z,81.06
2022-10-19T03:51:56.890Z,80.51
2022-10-19T03:54:29.212Z,80.60
2022-10-19T03:57:01.545Z,81.38
2022-10-19T03:59:33.923Z,81.35
2022-10-19T04:02:06.282Z,80.89
2022-10-19T04:04:39.383Z,80.75
2022-10-19T04:07:11.662Z,80.92
2022-10-19T04:09:44.088Z,81.71
2022-10-19T04:12:16.390Z,81.37
2022-10-19T04:14:58.194Z,81.76
2022-10-19T04:17:30.640Z,82.39
2022-10-19T04:20:04.573Z,81.88
2022-10-19T04:22:36.874Z,82.15
2022-10-19T04:25:10.463Z,81.92
2022-10-19T04:27:42.740Z,81.97
2022-10-19T04:30:15.178Z,81.95
2022-10-19T04:32:47.468Z,82.50
2022-10-19T04:35:20.496Z,81.98
2022-10-19T04:37:52.767Z,81.82
2022-10-19T04:40:25.199Z,81.79
2022-10-19T04:42:57.816Z,81.87
2022-10-19T04:45:30.168Z,82.31
2022-10-19T04:48:02.510Z,82.44
2022-10-19T04:50:35.488Z,82.01
2022-10-19T04:53:07.818Z,82.22
2022-10-19T04:55:40.835Z,82.35
2022-10-19T04:58:13.144Z,82.86
2022-10-19T05:00:45.525Z,82.82
2022-10-19T05:03:17.987Z,82.49
2022-10-19T05:05:51.062Z,83.33
2022-10-19T05:08:23.330Z,83.52
2022-10-19T05:11:00.867Z,83.56
2022-10-19T05:13:34.017Z,83.38
2022-10-19T05:16:08.507Z,84.08
2022-10-19T05:18:41.251Z,84.36
2022-10-19T05:21:14.979Z,84.53
2022-10-19T05:23:50.512Z,84.52
2022-10-19T05:26:24.040Z,84.28
2022-10-19T05:28:59.728Z,84.51
2022-10-19T05:31:33.988Z,84.19
2022-10-19T05:36:44.197Z,85.36
2022-10-19T05:39:17.927Z,85.28
2022-10-19T05:41:50.461Z,85.44
2022-10-19T05:44:23.572Z,85.54
2022-10-19T05:46:55.881Z,85.36
2022-10-19T05:49:28.278Z,85.62
2022-10-19T05:52:01.277Z,85.53
2022-10-19T05:54:35.274Z,85.83
2022-10-19T05:57:07.583Z,86.15
2022-10-19T05:59:39.905Z,85.62
2022-10-19T06:02:13.703Z,86.39
2022-10-19T06:04:46.151Z,85.83
2022-10-19T06:07:19.136Z,86.32
2022-10-19T06:09:51.486Z,85.03
2022-10-19T06:12:25.163Z,85.91
2022-10-19T06:14:57.575Z,85.72
2022-10-19T06:17:29.905Z,85.30
2022-10-19T06:20:02.247Z,85.89
2022-10-19T06:22:35.255Z,86.07
2022-10-19T06:25:08.306Z,86.72
2022-10-19T06:27:40.676Z,86.49
2022-10-19T06:30:13.467Z,86.56
2022-10-19T06:32:45.884Z,85.27
2022-10-19T06:35:18.296Z,82.72
2022-10-19T06:37:51.320Z,81.86
2022-10-19T06:40:23.775Z,82.67
2022-10-19T06:42:56.254Z,81.46
2022-10-19T06:45:31.149Z,79.89
2022-10-19T06:48:07.817Z,78.28
2022-10-19T06:50:40.461Z,75.27
2022-10-19T06:53:13.478Z,74.82
2022-10-19T06:55:45.795Z,73.85
2022-10-19T06:58:18.244Z,73.26
2022-10-19T07:00:56.357Z,70.91
2022-10-19T07:03:29.708Z,69.36
2022-10-19T07:06:03.738Z,69.77
2022-10-19T07:08:39.471Z,69.75
2022-10-19T07:11:15.122Z,67.32
2022-10-19T07:13:47.971Z,66.75
2022-10-19T07:16:21.517Z,65.02
2022-10-19T07:18:54.197Z,62.48
2022-10-19T07:21:26.581Z,63.73
2022-10-19T07:23:59.828Z,60.78
2022-10-19T07:26:33.043Z,61.50
2022-10-19T07:29:05.391Z,60.21
2022-10-19T07:31:37.723Z,59.19
2022-10-19T07:34:12.202Z,60.66
2022-10-19T07:36:47.336Z,59.75
2022-10-19T07:39:20.786Z,58.94
2022-10-19T07:41:53.169Z,57.34
2022-10-19T07:44:25.757Z,52.96
2022-10-19T07:46:58.543Z,52.50
2022-10-19T07:49:30.867Z,50.12
2022-10-19T07:52:03.287Z,48.98
2022-10-19T07:54:36.335Z,49.35
2022-10-19T07:57:11.647Z,47.45
2022-10-19T07:59:44.052Z,47.67
2022-10-19T08:02:17.252Z,44.72
2022-10-19T08:05:01.053Z,45.40
2022-10-19T08:07:36.371Z,44.40
2022-10-19T08:10:10.169Z,44.46
2022-10-19T08:12:42.541Z,43.25
2022-10-19T08:15:14.991Z,43.81
2022-10-19T08:17:47.281Z,41.51
2022-10-19T08:20:19.885Z,42.44
2022-10-19T08:22:56.444Z,42.03
2022-10-19T08:25:31.938Z,41.74
2022-10-19T08:28:04.297Z,41.29
2022-10-19T08:30:36.849Z,40.79
2022-10-19T08:33:11.743Z,40.81
2022-10-19T08:35:44.098Z,40.73
2022-10-19T08:38:16.407Z,41.07
2022-10-19T08:40:49.557Z,40.23
2022-10-19T08:43:29.975Z,40.64
2022-10-19T08:46:15.521Z,41.34
2022-10-19T08:48:47.865Z,40.06
2022-10-19T08:51:20.386Z,40.16
2022-10-19T08:53:55.450Z,39.95
2022-10-19T08:56:50.006Z,39.58
2022-10-19T08:59:36.807Z,39.55
2022-10-19T09:02:16.011Z,38.82
2022-10-19T09:04:54.089Z,38.02
2022-10-19T09:07:28.683Z,38.79
2022-10-19T09:10:08.793Z,39.15
2022-10-19T09:12:47.678Z,38.64
2022-10-19T09:15:35.813Z,39.51
2022-10-19T09:18:10.645Z,38.15
2022-10-19T09:20:46.966Z,39.04
2022-10-19T09:23:29.199Z,40.51
2022-10-19T09:26:03.169Z,39.24
2022-10-19T09:28:45.079Z,39.01
2022-10-19T09:31:23.663Z,39.37
2022-10-19T09:34:00.088Z,38.62
2022-10-19T09:36:50.082Z,38.03
2022-10-19T09:39:26.987Z,38.64
2022-10-19T09:42:07.801Z,38.14
2022-10-19T09:44:41.415Z,38.34
2022-10-19T09:47:28.954Z,38.30
2022-10-19T09:50:15.822Z,37.52
2022-10-19T09:52:50.754Z,37.60
2022-10-19T09:55:28.156Z,38.01
2022-10-19T09:58:03.627Z,37.57
2022-10-19T10:00:39.487Z,38.25
2022-10-19T10:03:24.211Z,37.94
2022-10-19T10:05:58.983Z,37.19
2022-10-19T10:08:35.229Z,36.39
2022-10-19T10:11:10.915Z,36.12
2022-10-19T10:13:48.878Z,36.00
2022-10-19T10:16:23.597Z,36.73
2022-10-19T10:18:58.393Z,35.59
2022-10-19T10:21:34.012Z,34.84
2022-10-19T10:24:16.845Z,34.11
2022-10-19T10:26:51.537Z,34.28
2022-10-19T10:29:25.739Z,33.18
2022-10-19T10:32:04.208Z,32.63
2022-10-19T10:34:49.795Z,32.98
2022-10-19T10:37:30.178Z,32.04
2022-10-19T10:40:05.039Z,31.66
2022-10-19T10:42:43.755Z,30.53
2022-10-19T10:45:18.781Z,30.66
2022-10-19T10:47:52.776Z,30.57
2022-10-19T10:50:30.243Z,30.35
2022-10-19T10:53:04.669Z,30.68
2022-10-19T10:55:37.017Z,30.71
2022-10-19T10:58:15.385Z,29.42
2022-10-19T11:00:51.003Z,29.87
2022-10-19T11:03:26.416Z,29.41
2022-10-19T11:06:00.483Z,29.62
2022-10-19T11:08:40.522Z,29.19
2022-10-19T11:11:17.002Z,29.52
2022-10-19T11:13:56.697Z,30.53
2022-10-19T11:16:33.757Z,29.29
2022-10-19T11:21:57.022Z,29.30
2022-10-19T11:24:41.900Z,29.28
2022-10-19T11:27:25.989Z,28.36
2022-10-19T11:30:07.480Z,27.41
2022-10-19T11:32:55.056Z,28.52
2022-10-19T11:35:38.287Z,28.60
2022-10-19T11:38:29.886Z,29.07
2022-10-19T11:41:19.233Z,27.72
2022-10-19T11:44:16.543Z,28.50
2022-10-19T11:47:00.851Z,28.33
2022-10-19T11:49:49.094Z,28.62
2022-10-19T11:52:34.881Z,27.55
2022-10-19T11:55:33.795Z,28.57
2022-10-19T11:58:34.468Z,27.97
2022-10-19T12:01:14.888Z,28.77
2022-10-19T12:04:13.654Z,28.69
2022-10-19T12:06:55.319Z,27.65
2022-10-19T12:09:41.796Z,28.08
2022-10-19T12:12:32.849Z,26.88
2022-10-19T12:15:20.058Z,27.46
2022-10-19T12:17:55.239Z,27.06
2022-10-19T12:20:34.591Z,26.69
2022-10-19T12:23:23.005Z,26.73
2022-10-19T12:25:58.011Z,27.10
2022-10-19T12:28:32.680Z,27.58
2022-10-19T12:31:06.634Z,27.30
2022-10-19T12:33:46.631Z,27.51
2022-10-19T12:36:30.177Z,28.03
2022-10-19T12:39:10.036Z,27.43
2022-10-19T12:41:51.556Z,27.79
2022-10-19T12:45:01.212Z,29.11
2022-10-19T12:47:33.929Z,28.82
2022-10-19T12:50:07.204Z,29.93
2022-10-19T12:52:43.723Z,29.06
2022-10-19T12:55:34.124Z,29.28
2022-10-19T12:58:20.547Z,29.58
2022-10-19T13:01:00.315Z,30.35
2022-10-19T13:03:34.963Z,29.89
2022-10-19T13:06:12.479Z,30.95
2022-10-19T13:08:54.600Z,31.08
2022-10-19T13:11:27.220Z,30.28
2022-10-19T13:14:29.884Z,32.05
2022-10-19T13:17:03.475Z,32.77
2022-10-19T13:19:36.247Z,31.94
2022-10-19T13:22:25.335Z,31.49
2022-10-19T13:25:26.159Z,31.66
2022-10-19T13:28:18.075Z,31.75
2022-10-19T13:31:09.422Z,31.52
2022-10-19T13:33:49.304Z,31.69
2022-10-19T13:36:34.543Z,32.59
2022-10-19T13:39:16.539Z,32.53
2022-10-19T13:41:53.695Z,31.94
2022-10-19T13:44:35.859Z,32.43
2022-10-19T13:47:43.568Z,33.18
2022-10-19T13:50:25.777Z,33.29
2022-10-19T13:53:34.852Z,33.47
2022-10-19T13:56:35.531Z,34.22
2022-10-19T13:59:39.722Z,33.69
2022-10-19T14:02:42.112Z,33.60
2022-10-19T14:05:49.778Z,33.81
2022-10-19T14:08:47.937Z,32.60
2022-10-19T14:11:25.197Z,33.87
2022-10-19T14:14:14.805Z,33.48
2022-10-19T14:16:50.553Z,33.64
2022-10-19T14:19:26.595Z,33.96
2022-10-19T14:22:01.647Z,34.26
2022-10-19T14:24:36.230Z,34.30
2022-10-19T14:27:15.624Z,34.88
2022-10-19T14:29:50.180Z,35.08
2022-10-19T14:32:25.879Z,34.82
2022-10-19T14:37:43.273Z,34.83
2022-10-19T14:40:27.918Z,35.00
2022-10-19T14:43:01.305Z,35.08
2022-10-19T14:45:33.658Z,35.75
2022-10-19T14:48:07.242Z,36.15
2022-10-19T14:50:43.014Z,36.38
2022-10-19T14:53:30.456Z,36.66
2022-10-19T14:56:07.722Z,36.81
2022-10-19T14:58:47.109Z,36.68
2022-10-19T15:01:20.611Z,37.34
2022-10-19T15:03:53.039Z,37.71
2022-10-19T15:06:27.955Z,37.33
2022-10-19T15:09:03.568Z,37.78
2022-10-19T15:11:39.882Z,37.63
2022-10-19T15:14:25.723Z,38.13
2022-10-19T15:17:00.648Z,38.56
2022-10-19T15:19:40.755Z,38.34
2022-10-19T15:22:18.248Z,38.10
2022-10-19T15:25:02.072Z,38.04
2022-10-19T15:27:36.616Z,38.06
2022-10-19T15:30:25.392Z,38.33
2022-10-19T15:33:13.612Z,38.45
2022-10-19T15:35:46.033Z,38.54
2022-10-19T15:38:24.128Z,38.55
2022-10-19T15:40:58.678Z,38.38
2022-10-19T15:43:48.032Z,38.41
2022-10-19T15:46:30.851Z,38.63
2022-10-19T15:49:24.877Z,38.79
2022-10-19T15:51:57.202Z,39.26
2022-10-19T15:54:29.507Z,38.79
2022-10-19T15:57:01.878Z,38.41
2022-10-19T15:59:34.864Z,39.07
2022-10-19T16:02:13.151Z,39.16
2022-10-19T16:04:45.458Z,39.09
2022-10-19T16:07:22.586Z,39.36
2022-10-19T16:09:54.971Z,39.67
2022-10-19T16:12:27.548Z,39.99
2022-10-19T16:15:00.713Z,39.96
2022-10-19T16:17:33.345Z,40.39
2022-10-19T16:20:06.598Z,40.62
2022-10-19T16:22:39.054Z,41.03
2022-10-19T16:25:11.719Z,41.11
2022-10-19T16:27:44.344Z,41.59
2022-10-19T16:30:17.517Z,41.78
2022-10-19T16:32:49.845Z,41.70
2022-10-19T16:35:23.199Z,41.90
2022-10-19T16:37:55.567Z,42.32
2022-10-19T16:40:28.912Z,42.97
2022-10-19T16:43:01.259Z,42.98
2022-10-19T16:45:34.829Z,43.34
2022-10-19T16:48:07.180Z,42.75
2022-10-19T16:50:39.535Z,43.36
2022-10-19T16:53:11.873Z,43.85
2022-10-19T16:55:44.235Z,45.19
2022-10-19T16:58:16.600Z,45.79
2022-10-19T17:00:49.611Z,45.57
2022-10-19T17:03:22.189Z,45.43
2022-10-19T17:05:54.520Z,47.29
2022-10-19T17:08:37.207Z,47.60
2022-10-19T17:11:21.662Z,48.30
2022-10-19T17:13:56.295Z,48.70
2022-10-19T17:16:31.019Z,49.08
2022-10-19T17:19:04.687Z,48.68
2022-10-19T17:21:38.840Z,49.45
2022-10-19T17:24:18.456Z,49.89
2022-10-19T17:26:53.719Z,50.16
2022-10-19T17:29:26.064Z,50.46
2022-10-19T17:31:59.209Z,50.84
2022-10-19T17:34:31.700Z,51.84
2022-10-19T17:37:04.074Z,52.97
2022-10-19T17:39:36.428Z,53.98
2022-10-19T17:42:08.731Z,54.07
2022-10-19T17:44:41.074Z,53.88
2022-10-19T17:47:14.095Z,54.04
2022-10-19T17:49:46.445Z,54.05
2022-10-19T17:52:18.757Z,54.42
2022-10-19T17:55:11.101Z,54.99
2022-10-19T17:57:43.351Z,55.48
2022-10-19T18:00:15.831Z,55.88
2022-10-19T18:02:48.951Z,56.50
2022-10-19T18:05:21.339Z,56.33
2022-10-19T18:07:54.837Z,56.15
2022-10-19T18:10:27.170Z,58.21
2022-10-19T18:12:59.530Z,58.09
2022-10-19T18:15:31.898Z,57.64
2022-10-19T18:18:04.916Z,57.55
2022-10-19T18:20:38.818Z,57.22
2022-10-19T18:23:11.582Z,57.65
2022-10-19T18:25:53.917Z,58.17
2022-10-19T18:28:26.907Z,59.74
2022-10-19T18:31:04.974Z,59.67
2022-10-19T18:33:38.373Z,60.09
2022-10-19T18:36:10.795Z,60.33
2022-10-19T18:38:43.134Z,60.29
2022-10-19T18:41:15.472Z,61.11
2022-10-19T18:43:50.923Z,61.23
2022-10-19T18:46:24.802Z,62.73
2022-10-19T18:48:59.392Z,61.24
2022-10-19T18:51:31.969Z,61.50
2022-10-19T18:54:04.949Z,62.09
2022-10-19T18:56:37.334Z,62.45
2022-10-19T18:59:09.706Z,62.43
2022-10-19T19:01:42.151Z,63.33
2022-10-19T19:04:15.170Z,63.34
2022-10-19T19:06:47.548Z,64.39
2022-10-19T19:09:20.508Z,64.20
2022-10-19T19:11:57.007Z,64.07
2022-10-19T19:14:29.313Z,63.51
2022-10-19T19:17:01.702Z,64.50
2022-10-19T19:19:34.741Z,64.66
2022-10-19T19:22:08.799Z,64.51
2022-10-19T19:24:41.435Z,65.30
2022-10-19T19:27:13.890Z,66.66
2022-10-19T19:29:46.171Z,66.07
2022-10-19T19:32:18.554Z,66.36
2022-10-19T19:34:54.905Z,66.82
2022-10-19T19:37:27.388Z,67.56
2022-10-19T19:39:59.721Z,67.65
2022-10-19T19:42:32.023Z,67.78
2022-10-19T19:45:05.139Z,67.86
2022-10-19T19:47:37.870Z,68.05
2022-10-19T19:50:11.075Z,68.91
2022-10-19T19:52:43.435Z,69.30
2022-10-19T19:55:15.930Z,70.42
2022-10-19T19:57:49.331Z,70.51
2022-10-19T20:00:22.474Z,69.82
2022-10-19T20:02:56.119Z,69.64
2022-10-19T20:05:42.942Z,70.45
2022-10-19T20:08:15.384Z,70.00
2022-10-19T20:10:47.695Z,71.11
2022-10-19T20:13:20.051Z,71.52
2022-10-19T20:15:53.118Z,71.06
2022-10-19T20:18:25.447Z,72.18
2022-10-19T20:21:01.739Z,72.97
2022-10-19T20:23:34.128Z,72.77
2022-10-19T20:26:08.344Z,73.25
2022-10-19T20:28:40.799Z,73.69
2022-10-19T20:31:14.009Z,73.82
2022-10-19T20:33:47.221Z,74.14
2022-10-19T20:36:22.010Z,73.83
2022-10-19T20:38:56.123Z,74.24
2022-10-19T20:41:28.662Z,74.54
2022-10-19T20:44:01.122Z,74.57
2022-10-19T20:46:33.467Z,74.85
2022-10-19T20:49:06.727Z,75.66
2022-10-19T20:51:39.698Z,75.67
2022-10-19T20:54:13.048Z,75.77
2022-10-19T20:56:45.642Z,75.48
2022-10-19T20:59:20.035Z,76.58
2022-10-19T21:01:55.107Z,76.71
2022-10-19T21:04:27.487Z,76.31
2022-10-19T21:07:00.706Z,79.16
2022-10-19T21:09:33.323Z,78.70
2022-10-19T21:12:05.659Z,79.29
2022-10-19T21:14:38.209Z,81.36
2022-10-19T21:17:10.526Z,81.54
2022-10-19T21:19:42.882Z,82.35
2022-10-19T21:22:15.863Z,82.16
2022-10-19T21:24:48.192Z,80.81
2022-10-19T21:27:20.531Z,84.41
2022-10-19T21:29:53.024Z,84.22
2022-10-19T21:32:25.724Z,84.10
2022-10-19T21:34:58.028Z,83.54
2022-10-19T21:37:30.997Z,83.56
2022-10-19T21:40:03.920Z,83.71
2022-10-19T21:42:36.231Z,83.64
2022-10-19T21:45:30.357Z,83.01
2022-10-19T21:48:02.605Z,82.59
2022-10-19T21:50:34.935Z,82.09
2022-10-19T21:53:08.012Z,83.56
2022-10-19T21:55:40.363Z,82.97
2022-10-19T21:58:12.695Z,83.62
2022-10-19T22:00:45.050Z,83.44
2022-10-19T22:03:18.064Z,83.40
2022-10-19T22:05:50.778Z,83.21
2022-10-19T22:08:23.891Z,83.39
2022-10-19T22:10:56.255Z,83.46
2022-10-19T22:13:28.533Z,83.58
2022-10-19T22:16:05.089Z,83.28
2022-10-19T22:18:37.630Z,84.45
2022-10-19T22:21:12.535Z,83.73
2022-10-19T22:23:49.758Z,85.13
2022-10-19T22:26:25.378Z,84.65
2022-10-19T22:28:59.158Z,83.85
2022-10-19T22:31:32.642Z,83.92
2022-10-19T22:34:07.415Z,83.29
2022-10-19T22:36:39.756Z,82.83
2022-10-19T22:39:13.571Z,82.24
2022-10-19T22:42:44.011Z,82.10
2022-10-19T22:46:30.098Z,82.09
2022-10-19T22:50:16.392Z,82.87
2022-10-19T22:53:07.071Z,82.58
2022-10-19T22:55:40.069Z,82.59
2022-10-19T23:00:59.970Z,82.50
2022-10-19T23:03:32.369Z,81.87
2022-10-19T23:06:04.753Z,82.29
2022-10-19T23:08:37.549Z,82.15
2022-10-19T23:11:10.951Z,83.69
2022-10-19T23:13:43.305Z,85.01
2022-10-19T23:16:15.868Z,84.29
2022-10-19T23:18:48.222Z,84.22
2022-10-19T23:21:20.699Z,84.00
2022-10-19T23:23:53.567Z,83.80
2022-10-19T23:26:26.515Z,84.06
2022-10-19T23:28:58.831Z,84.12
2022-10-19T23:31:32.201Z,83.75
2022-10-19T23:34:04.447Z,83.94
2022-10-19T23:36:36.885Z,84.33
2022-10-19T23:39:09.131Z,84.19
2022-10-19T23:41:42.148Z,83.98
2022-10-19T23:44:14.434Z,83.73
2022-10-19T23:46:46.844Z,83.21
2022-10-19T23:49:19.277Z,82.80
2022-10-19T23:51:51.563Z,82.54
2022-10-19T23:54:23.987Z,81.92
2022-10-19T23:56:56.903Z,80.43
2022-10-19T23:59:29.381Z,80.32
